Time;durP1;ratioP1;P1;durP2;ratioP2;P2;SDS_P1;SDS_P2;PMS_P1;PMS_P2;Temp;Humidity;BMP_temperature;BMP_pressure;BME280_temperature;BME280_humidity;BME280_pressure;Samples;Min_cycle;Max_cycle;Signal;HPM_P1;HPM_P2
2023/04/20 00:01:31;;;;;;;13.20;4.22;;;;;;;7.11;44.92;102075.22;5019924;28;20028;-76
2023/04/20 00:03:57;;;;;;;12.25;3.95;;;;;;;7.11;43.07;102088.59;5018272;28;20029;-76
2023/04/20 00:06:24;;;;;;;12.15;3.83;;;;;;;7.08;44.00;102078.88;5023708;28;20342;-75
2023/04/20 00:08:49;;;;;;;12.23;4.03;;;;;;;7.05;44.41;102078.16;5010157;28;20115;-76
2023/04/20 00:11:14;;;;;;;12.68;3.97;;;;;;;7.00;44.46;102078.31;4998027;28;20481;-76
2023/04/20 00:13:40;;;;;;;15.50;4.22;;;;;;;6.95;44.42;102069.59;5007903;28;20481;-76
2023/04/20 00:16:05;;;;;;;13.30;3.70;;;;;;;6.93;44.18;102075.00;5017155;28;20388;-76
2023/04/20 00:18:30;;;;;;;13.80;4.10;;;;;;;6.95;44.39;102073.13;5025222;28;20029;-76
2023/04/20 00:20:56;;;;;;;12.18;3.75;;;;;;;6.92;44.57;102064.38;5024454;28;20029;-76
2023/04/20 00:23:21;;;;;;;13.38;4.40;;;;;;;6.90;45.58;102064.44;5023113;28;20243;-76
2023/04/20 00:25:48;;;;;;;14.10;3.92;;;;;;;6.87;45.23;102056.53;5004248;28;20034;-76
2023/04/20 00:28:13;;;;;;;13.43;4.50;;;;;;;6.86;46.19;102049.44;5022163;28;20092;-76
2023/04/20 00:30:39;;;;;;;14.38;4.07;;;;;;;6.86;45.46;102051.25;5024434;28;20033;-76
2023/04/20 00:33:04;;;;;;;14.93;3.88;;;;;;;6.84;45.31;102040.63;5016996;28;20108;-76
2023/04/20 00:35:29;;;;;;;11.68;3.72;;;;;;;6.81;45.25;102035.41;4998039;28;20026;-76
2023/04/20 00:37:55;;;;;;;15.23;4.45;;;;;;;6.80;45.17;102041.66;5022214;28;20454;-76
2023/04/20 00:40:20;;;;;;;16.35;5.22;;;;;;;6.76;44.96;102034.69;5007093;28;20159;-76
2023/04/20 00:42:45;;;;;;;17.67;3.97;;;;;;;6.78;44.02;102025.69;5024068;28;20477;-76
2023/04/20 00:45:10;;;;;;;11.07;3.80;;;;;;;6.76;43.97;102024.00;5018105;28;20044;-77
2023/04/20 00:47:36;;;;;;;14.05;4.40;;;;;;;6.76;44.92;102013.31;5016388;28;20502;-76
2023/04/20 00:50:02;;;;;;;14.55;4.00;;;;;;;6.73;44.67;102018.78;5000447;28;20052;-76
2023/04/20 00:52:27;;;;;;;14.40;3.97;;;;;;;6.67;45.50;102016.34;5019937;28;20030;-76
2023/04/20 00:54:53;;;;;;;10.15;3.72;;;;;;;6.64;45.43;102012.84;5002735;28;20034;-76
2023/04/20 00:57:22;;;;;;;11.45;3.30;;;;;;;6.64;44.99;102009.31;5019010;28;20053;-76
2023/04/20 00:59:48;;;;;;;13.52;4.03;;;;;;;6.60;47.36;102002.34;5021432;28;20075;-76
2023/04/20 01:02:13;;;;;;;13.32;4.20;;;;;;;6.51;46.69;101992.88;4999866;28;20048;-76
2023/04/20 01:04:39;;;;;;;13.50;3.92;;;;;;;6.42;48.65;101993.25;5004122;28;20428;-76
2023/04/20 01:07:04;;;;;;;12.73;3.95;;;;;;;6.32;51.07;101990.03;4995626;28;20087;-76
2023/04/20 01:09:29;;;;;;;14.75;4.32;;;;;;;6.19;52.67;101980.75;5020931;28;20107;-77
2023/04/20 01:11:55;;;;;;;13.55;4.30;;;;;;;6.16;49.71;101987.06;5016154;28;20053;-77
2023/04/20 01:14:20;;;;;;;13.65;4.13;;;;;;;6.03;51.26;101980.44;5012046;28;20558;-76
2023/04/20 01:16:46;;;;;;;11.55;3.85;;;;;;;5.95;49.48;101978.88;5005820;28;20021;-76
2023/04/20 01:19:11;;;;;;;13.07;4.03;;;;;;;5.86;54.24;101968.53;5021945;28;20095;-76
2023/04/20 01:21:37;;;;;;;14.73;4.45;;;;;;;5.77;54.77;101964.38;5003843;28;20030;-76
2023/04/20 01:24:02;;;;;;;13.80;4.25;;;;;;;5.64;53.78;101960.41;5004958;28;20037;-76
2023/04/20 01:26:28;;;;;;;10.90;3.75;;;;;;;5.54;55.09;101961.66;5020689;28;20037;-76
2023/04/20 01:28:53;;;;;;;15.23;4.20;;;;;;;5.47;55.20;101955.66;5004743;28;20480;-76
2023/04/20 01:31:18;;;;;;;11.75;3.72;;;;;;;5.43;53.12;101962.00;5022770;28;20496;-75
2023/04/20 01:33:44;;;;;;;13.50;3.72;;;;;;;5.39;54.82;101955.06;5014268;28;20488;-76
2023/04/20 01:36:09;;;;;;;11.10;4.07;;;;;;;5.36;55.24;101947.13;5023650;28;20029;-76
2023/04/20 01:38:35;;;;;;;11.90;3.65;;;;;;;5.29;57.46;101945.63;5017131;28;20064;-76
2023/04/20 01:41:05;;;;;;;16.05;4.07;;;;;;;5.28;57.19;101941.22;5022808;28;20021;-77
2023/04/20 01:43:33;;;;;;;12.75;3.80;;;;;;;5.28;57.40;101942.06;4998387;28;20345;-76
2023/04/20 01:45:59;;;;;;;12.73;3.83;;;;;;;5.21;57.43;101933.44;5001771;28;20521;-76
2023/04/20 01:48:25;;;;;;;13.98;4.22;;;;;;;5.13;58.61;101930.13;5006741;28;20045;-76
2023/04/20 01:50:51;;;;;;;14.98;4.18;;;;;;;5.12;58.43;101933.72;5021056;28;20048;-76
2023/04/20 01:53:17;;;;;;;10.25;3.38;;;;;;;5.07;59.62;101935.69;4999797;28;20044;-76
2023/04/20 01:55:42;;;;;;;11.32;3.65;;;;;;;5.05;59.11;101929.50;5011404;28;20441;-75
2023/04/20 01:58:07;;;;;;;14.38;4.20;;;;;;;5.01;58.79;101920.75;4992540;28;20030;-76
2023/04/20 02:00:33;;;;;;;14.32;3.78;;;;;;;4.98;58.69;101917.31;4999944;28;20017;-75
2023/04/20 02:02:58;;;;;;;11.85;3.72;;;;;;;4.96;59.74;101913.84;5018579;28;20026;-76
2023/04/20 02:05:24;;;;;;;16.92;4.03;;;;;;;4.96;58.78;101908.50;5021879;28;20038;-76
2023/04/20 02:07:50;;;;;;;11.13;3.80;;;;;;;4.90;59.62;101902.47;5022840;28;20104;-76
2023/04/20 02:10:15;;;;;;;14.88;4.43;;;;;;;4.83;58.91;101900.03;4999590;28;20061;-76
2023/04/20 02:12:40;;;;;;;12.85;3.97;;;;;;;4.84;57.54;101902.66;5001897;28;20036;-76
2023/04/20 02:15:08;;;;;;;16.40;4.68;;;;;;;4.81;59.12;101897.41;5019956;28;20051;-75
2023/04/20 02:17:35;;;;;;;12.30;4.20;;;;;;;4.82;59.35;101887.66;4994489;28;20060;-76
2023/04/20 02:20:00;;;;;;;13.50;4.43;;;;;;;4.80;56.01;101885.03;5013897;28;20034;-76
2023/04/20 02:22:25;;;;;;;12.82;3.63;;;;;;;4.82;60.01;101891.19;5004592;28;20084;-76
2023/04/20 02:24:51;;;;;;;15.95;4.07;;;;;;;4.82;56.78;101888.53;5001669;28;20073;-76
2023/04/20 02:27:16;;;;;;;15.48;4.30;;;;;;;4.89;56.43;101883.84;5014853;28;20117;-75
2023/04/20 02:29:41;;;;;;;13.48;4.22;;;;;;;4.85;58.70;101871.56;4997119;28;20098;-76
2023/04/20 02:32:07;;;;;;;10.13;3.50;;;;;;;4.89;56.86;101867.84;5000849;28;20378;-76
2023/04/20 02:34:32;;;;;;;14.63;4.05;;;;;;;4.96;55.34;101869.41;5017922;28;20364;-76
2023/04/20 02:36:57;;;;;;;16.27;4.75;;;;;;;4.97;55.96;101870.28;5011907;28;20029;-76
2023/04/20 02:39:22;;;;;;;14.75;4.32;;;;;;;4.98;55.17;101867.56;5001448;28;20026;-77
2023/04/20 02:41:48;;;;;;;14.48;4.10;;;;;;;5.04;54.63;101872.69;4998983;28;20029;-76
2023/04/20 02:44:13;;;;;;;14.07;3.95;;;;;;;5.11;55.15;101870.69;5014303;28;20496;-76
2023/04/20 02:46:38;;;;;;;14.30;4.25;;;;;;;5.16;55.01;101868.72;5014716;28;20503;-76
2023/04/20 02:49:04;;;;;;;11.20;3.45;;;;;;;5.20;55.76;101856.19;4995106;28;20038;-76
2023/04/20 02:51:30;;;;;;;9.50;3.50;;;;;;;5.22;55.31;101860.53;5002225;28;20033;-76
2023/04/20 02:53:55;;;;;;;14.63;3.83;;;;;;;5.19;59.06;101857.97;5021071;28;20049;-76
2023/04/20 02:56:21;;;;;;;14.10;3.90;;;;;;;5.20;55.82;101862.38;5018597;28;20080;-76
2023/04/20 02:58:47;;;;;;;11.90;3.67;;;;;;;5.22;56.47;101851.66;5019623;28;20026;-76
2023/04/20 03:01:12;;;;;;;13.05;3.92;;;;;;;5.25;56.39;101854.22;5023804;28;20033;-76
2023/04/20 03:03:38;;;;;;;11.13;3.83;;;;;;;5.28;56.34;101848.78;5018188;28;20156;-76
2023/04/20 03:06:03;;;;;;;11.48;3.90;;;;;;;5.27;56.50;101851.50;5020097;28;20483;-76
2023/04/20 03:08:28;;;;;;;12.35;4.15;;;;;;;5.29;57.00;101849.69;5018295;28;20091;-76
2023/04/20 03:10:54;;;;;;;14.30;4.03;;;;;;;5.33;57.36;101851.28;5019545;28;20115;-76
2023/04/20 03:13:19;;;;;;;14.45;4.00;;;;;;;5.33;57.03;101835.28;5020561;28;20149;-76
2023/04/20 03:15:44;;;;;;;16.52;5.15;;;;;;;5.33;57.69;101840.63;5016812;28;20422;-76
2023/04/20 03:18:10;;;;;;;14.32;4.68;;;;;;;5.34;57.71;101837.03;4998101;28;20396;-76
2023/04/20 03:20:35;;;;;;;14.85;3.92;;;;;;;5.38;58.05;101836.88;5003494;28;20099;-76
2023/04/20 03:23:01;;;;;;;13.18;4.18;;;;;;;5.40;58.04;101824.38;5006016;28;20022;-76
2023/04/20 03:25:26;;;;;;;14.45;4.22;;;;;;;5.37;58.10;101823.59;5027397;28;20033;-77
2023/04/20 03:27:52;;;;;;;12.02;4.00;;;;;;;5.40;58.86;101826.16;5017873;28;20507;-76
2023/04/20 03:30:17;;;;;;;15.10;4.47;;;;;;;5.43;58.49;101826.03;5019215;28;20143;-76
2023/04/20 03:32:42;;;;;;;12.25;4.30;;;;;;;5.45;59.06;101829.53;5022596;28;20065;-76
2023/04/20 03:35:09;;;;;;;13.82;4.18;;;;;;;5.48;59.18;101826.75;5004985;28;20361;-76
2023/04/20 03:37:37;;;;;;;11.20;4.35;;;;;;;5.51;59.45;101821.31;5018062;28;20083;-76
2023/04/20 03:40:03;;;;;;;13.13;4.50;;;;;;;5.54;60.00;101825.66;4999574;28;20483;-77
2023/04/20 03:42:29;;;;;;;16.42;4.88;;;;;;;5.58;59.71;101813.97;5005919;28;20034;-76
2023/04/20 03:44:54;;;;;;;19.10;4.63;;;;;;;5.63;60.46;101803.97;5010501;28;20419;-76
2023/04/20 03:47:20;;;;;;;13.77;4.32;;;;;;;5.68;60.96;101787.81;5016589;28;20445;-75
2023/04/20 03:49:45;;;;;;;18.08;4.85;;;;;;;5.73;60.76;101804.53;5000422;28;20037;-76
2023/04/20 03:52:10;;;;;;;13.77;4.70;;;;;;;5.75;60.64;101795.53;5022896;28;20046;-76
2023/04/20 03:54:35;;;;;;;14.48;3.95;;;;;;;5.78;60.71;101802.53;5005185;28;20215;-76
2023/04/20 03:57:01;;;;;;;13.00;3.97;;;;;;;5.83;60.31;101805.03;5027110;28;20064;-76
2023/04/20 03:59:27;;;;;;;15.23;4.45;;;;;;;5.85;61.16;101793.38;5003953;28;20040;-76
2023/04/20 04:01:53;;;;;;;13.93;4.45;;;;;;;5.88;61.12;101790.56;5002646;28;20514;-76
2023/04/20 04:04:18;;;;;;;16.98;5.10;;;;;;;5.91;60.93;101790.47;5008115;28;20116;-77
2023/04/20 04:06:43;;;;;;;11.73;4.25;;;;;;;5.95;61.07;101794.75;5023050;28;20040;-76
2023/04/20 04:09:08;;;;;;;15.10;5.15;;;;;;;6.00;61.42;101796.41;5003756;28;20116;-76
2023/04/20 04:11:34;;;;;;;14.88;4.60;;;;;;;6.04;62.73;101784.69;5022019;28;20030;-76
2023/04/20 04:13:59;;;;;;;17.38;5.03;;;;;;;6.08;61.58;101784.50;5020249;28;20405;-76
2023/04/20 04:16:24;;;;;;;12.63;4.00;;;;;;;6.09;62.06;101782.69;5000960;28;20037;-76
2023/04/20 04:18:50;;;;;;;12.93;4.25;;;;;;;6.11;61.71;101786.19;5021942;28;20156;-76
2023/04/20 04:21:15;;;;;;;13.20;4.20;;;;;;;6.14;61.76;101782.53;5028211;28;20041;-76
2023/04/20 04:23:41;;;;;;;13.95;4.68;;;;;;;6.14;62.10;101778.06;4999353;28;20048;-77
2023/04/20 04:26:07;;;;;;;16.48;5.22;;;;;;;6.14;61.93;101772.72;5007529;28;20417;-77
2023/04/20 04:28:34;;;;;;;16.10;5.07;;;;;;;6.16;62.63;101764.66;5020300;28;20111;-77
2023/04/20 04:31:04;;;;;;;17.77;5.13;;;;;;;6.16;62.66;101762.84;5015225;28;20026;-76
2023/04/20 04:33:32;;;;;;;;;;;;;;;6.24;61.45;101755.41;5006532;28;20091;-77
2023/04/20 04:35:57;;;;;;;21.67;5.28;;;;;;;6.20;63.04;101743.09;5013234;28;19917;-77
2023/04/20 04:38:22;;;;;;;19.55;5.28;;;;;;;6.21;63.51;101750.19;5000165;28;20109;-77
2023/04/20 04:40:48;;;;;;;15.23;4.15;;;;;;;6.21;63.31;101738.63;5000101;28;20045;-76
2023/04/20 04:43:14;;;;;;;14.95;4.75;;;;;;;6.26;63.62;101742.84;5016162;28;20030;-77
2023/04/20 04:45:40;;;;;;;16.75;4.88;;;;;;;6.28;63.19;101741.00;4985326;28;20462;-76
2023/04/20 04:48:07;;;;;;;12.43;4.13;;;;;;;6.29;64.32;101737.38;5008360;28;20096;-75
2023/04/20 04:50:32;;;;;;;15.57;5.15;;;;;;;6.33;64.47;101729.28;5021606;28;20026;-76
2023/04/20 04:52:58;;;;;;;20.25;4.88;;;;;;;6.35;64.12;101735.41;5000942;28;20120;-77
2023/04/20 04:55:23;;;;;;;16.30;4.15;;;;;;;6.38;63.76;101740.63;5003494;28;20030;-77
2023/04/20 04:57:48;;;;;;;16.98;5.47;;;;;;;6.40;64.53;101731.63;5003350;28;20025;-76
2023/04/20 05:00:14;;;;;;;15.60;4.72;;;;;;;6.45;63.87;101734.09;5007519;28;20457;-76
2023/04/20 05:02:40;;;;;;;16.80;5.15;;;;;;;6.45;64.19;101726.09;5004841;28;20032;-77
2023/04/20 05:05:07;;;;;;;15.85;5.20;;;;;;;6.47;64.46;101733.09;5002786;28;20042;-77
2023/04/20 05:07:32;;;;;;;15.73;4.80;;;;;;;6.50;64.31;101725.88;5023987;28;20043;-76
2023/04/20 05:09:57;;;;;;;18.08;5.93;;;;;;;6.52;64.45;101730.22;5006569;28;20029;-76
2023/04/20 05:12:24;;;;;;;16.15;5.10;;;;;;;6.52;65.34;101732.91;4995026;28;20037;-76
2023/04/20 05:14:50;;;;;;;16.60;4.95;;;;;;;6.52;64.43;101737.38;4999906;28;20017;-76
2023/04/20 05:17:15;;;;;;;16.23;5.20;;;;;;;6.56;64.87;101729.19;5020130;28;20099;-76
2023/04/20 05:19:40;;;;;;;13.52;4.47;;;;;;;6.59;64.96;101729.03;5021575;28;20109;-76
2023/04/20 05:22:05;;;;;;;16.33;5.30;;;;;;;6.61;65.36;101727.16;5020368;28;20030;-76
2023/04/20 05:24:31;;;;;;;13.65;4.57;;;;;;;6.63;65.69;101730.66;5020945;28;20428;-76
2023/04/20 05:26:56;;;;;;;17.30;5.43;;;;;;;6.65;66.91;101738.59;5001431;28;20113;-76
2023/04/20 05:29:22;;;;;;;12.35;4.85;;;;;;;6.65;66.79;101725.25;5021562;28;20471;-76
2023/04/20 05:31:48;;;;;;;13.55;4.60;;;;;;;6.67;67.63;101730.53;5022892;28;20441;-77
2023/04/20 05:34:13;;;;;;;14.13;5.18;;;;;;;6.71;67.79;101732.13;4989185;28;20406;-76
2023/04/20 05:36:39;;;;;;;13.23;4.72;;;;;;;6.71;66.70;101733.00;5011003;28;20030;-77
2023/04/20 05:39:04;;;;;;;17.67;4.95;;;;;;;6.75;66.54;101733.72;5023238;28;20492;-76
2023/04/20 05:41:30;;;;;;;15.85;5.32;;;;;;;6.76;67.27;101724.78;5006776;28;20017;-76
2023/04/20 05:43:55;;;;;;;14.15;4.82;;;;;;;6.79;66.60;101736.22;5018944;28;20268;-76
2023/04/20 05:46:21;;;;;;;18.48;5.18;;;;;;;6.80;66.50;101727.25;4988125;28;20038;-76
2023/04/20 05:48:47;;;;;;;14.60;5.03;;;;;;;6.82;65.96;101721.81;4986723;28;20500;-76
2023/04/20 05:51:12;;;;;;;14.70;4.82;;;;;;;6.82;66.55;101719.16;4991128;28;20462;-77
2023/04/20 05:53:37;;;;;;;21.00;5.82;;;;;;;6.87;66.39;101713.59;4985615;28;20026;-77
2023/04/20 05:56:03;;;;;;;17.30;5.18;;;;;;;6.90;65.75;101717.03;5017077;28;20572;-76
2023/04/20 05:58:32;;;;;;;16.25;4.82;;;;;;;6.92;65.87;101720.47;5016508;28;20151;-76
2023/04/20 06:00:57;;;;;;;16.90;5.47;;;;;;;6.94;66.57;101715.97;5008597;28;20113;-77
2023/04/20 06:03:22;;;;;;;15.70;4.72;;;;;;;6.98;66.11;101720.25;5005988;28;20082;-76
2023/04/20 06:05:48;;;;;;;14.82;4.90;;;;;;;7.01;66.53;101711.19;4987567;28;20038;-77
2023/04/20 06:08:13;;;;;;;20.42;5.57;;;;;;;7.03;65.89;101708.44;5006974;28;20041;-77
2023/04/20 06:10:39;;;;;;;22.63;6.05;;;;;;;7.05;65.51;101702.09;5005855;28;20017;-76
2023/04/20 06:13:04;;;;;;;18.77;5.80;;;;;;;7.06;65.41;101711.88;5006975;28;20314;-77
2023/04/20 06:15:30;;;;;;;16.42;5.28;;;;;;;7.10;66.25;101709.91;5007028;28;20485;-76
2023/04/20 06:17:55;;;;;;;15.75;5.47;;;;;;;7.15;66.26;101699.91;5003945;28;20413;-77
2023/04/20 06:20:21;;;;;;;19.13;5.43;;;;;;;7.22;65.70;101704.03;5007327;28;20111;-76
2023/04/20 06:22:47;;;;;;;17.13;5.85;;;;;;;7.28;65.26;101697.53;4990059;28;20029;-76
2023/04/20 06:25:12;;;;;;;20.25;5.22;;;;;;;7.31;65.41;101698.25;5006603;28;20025;-76
2023/04/20 06:27:38;;;;;;;21.05;4.88;;;;;;;7.34;65.22;101700.78;5007509;28;20396;-76
2023/04/20 06:30:05;;;;;;;16.92;5.38;;;;;;;7.38;64.74;101698.84;5006152;28;20045;-76
2023/04/20 06:32:30;;;;;;;17.70;5.68;;;;;;;7.41;64.95;101695.16;4983296;28;20053;-76
2023/04/20 06:34:55;;;;;;;18.55;6.25;;;;;;;7.43;64.64;101693.28;5013757;28;20025;-77
2023/04/20 06:37:21;;;;;;;17.52;5.63;;;;;;;7.48;65.35;101696.59;5001597;28;20113;-77
2023/04/20 06:39:46;;;;;;;15.75;5.40;;;;;;;7.53;66.23;101694.59;5018234;28;20033;-77
2023/04/20 06:42:12;;;;;;;15.30;5.68;;;;;;;7.55;64.45;101692.69;5021362;28;20034;-77
2023/04/20 06:44:38;;;;;;;16.80;5.72;;;;;;;7.55;64.85;101682.00;5014370;28;20034;-76
2023/04/20 06:47:03;;;;;;;21.10;5.90;;;;;;;7.57;64.47;101679.25;4990244;28;20045;-76
2023/04/20 06:49:32;;;;;;;18.15;5.80;;;;;;;7.61;64.34;101683.50;4996440;28;20025;-77
2023/04/20 06:51:57;;;;;;;18.60;5.43;;;;;;;7.63;64.04;101684.34;5002088;28;20045;-77
2023/04/20 06:54:22;;;;;;;16.02;6.05;;;;;;;7.65;65.45;101682.44;5022766;28;20083;-77
2023/04/20 06:56:53;;;;;;;19.13;6.43;;;;;;;7.67;64.32;101689.47;5021617;28;20045;-76
2023/04/20 06:59:18;;;;;;;19.38;6.03;;;;;;;7.67;64.67;101678.75;5018129;28;20140;-77
2023/04/20 07:01:44;;;;;;;18.23;5.88;;;;;;;7.68;64.53;101677.78;5003765;28;20125;-76
2023/04/20 07:04:09;;;;;;;17.75;6.20;;;;;;;7.73;64.94;101674.03;5002330;28;20068;-77
2023/04/20 07:06:35;;;;;;;17.63;6.10;;;;;;;7.74;64.55;101670.44;4999748;28;20032;-77
2023/04/20 07:09:00;;;;;;;19.23;6.13;;;;;;;7.75;64.29;101677.53;4992141;28;20028;-77
2023/04/20 07:11:25;;;;;;;18.05;6.07;;;;;;;7.75;63.58;101682.88;5018730;28;20060;-75
2023/04/20 07:13:50;;;;;;;18.55;6.10;;;;;;;7.77;63.91;101680.97;4998651;28;20392;-77
2023/04/20 07:16:16;;;;;;;20.25;6.93;;;;;;;7.77;64.46;101673.81;5002721;28;20120;-76
2023/04/20 07:18:41;;;;;;;18.08;6.35;;;;;;;7.78;63.92;101669.34;5004758;28;20396;-77
2023/04/20 07:21:06;;;;;;;18.23;5.57;;;;;;;7.78;64.67;101669.34;5001493;28;20029;-77
2023/04/20 07:23:31;;;;;;;18.75;5.63;;;;;;;7.77;64.30;101671.13;5011760;28;20030;-77
2023/04/20 07:25:57;;;;;;;18.48;5.82;;;;;;;7.77;64.25;101672.94;4992850;28;20029;-77
2023/04/20 07:28:22;;;;;;;17.75;5.88;;;;;;;7.81;65.35;101688.78;4999351;28;20037;-77
2023/04/20 07:30:47;;;;;;;19.40;6.30;;;;;;;7.83;64.87;101684.25;5020201;28;20076;-77
2023/04/20 07:33:13;;;;;;;20.67;6.43;;;;;;;7.82;64.40;101697.69;4994181;28;20026;-77
2023/04/20 07:35:39;;;;;;;19.55;6.22;;;;;;;7.79;64.30;101684.44;5000666;28;20037;-76
2023/04/20 07:38:04;;;;;;;16.42;5.28;;;;;;;7.78;64.46;101688.94;5019453;28;20034;-77
2023/04/20 07:40:29;;;;;;;18.17;5.95;;;;;;;7.77;63.81;101683.66;4994124;28;20072;-76
2023/04/20 07:42:55;;;;;;;18.30;6.03;;;;;;;7.79;63.99;101679.09;5018211;28;20057;-77
2023/04/20 07:45:21;;;;;;;20.58;6.15;;;;;;;7.81;64.38;101674.53;4999666;28;20033;-77
2023/04/20 07:47:50;;;;;;;15.20;5.22;;;;;;;7.81;64.28;101683.44;4985831;28;20040;-76
2023/04/20 07:50:15;;;;;;;16.95;5.75;;;;;;;7.84;64.02;101682.41;5020843;28;20053;-76
2023/04/20 07:52:43;;;;;;;20.20;6.00;;;;;;;7.87;64.51;101680.44;5018075;28;20064;-77
2023/04/20 07:55:10;;;;;;;17.50;5.55;;;;;;;7.90;65.32;101681.25;4989378;28;20026;-76
2023/04/20 07:57:36;;;;;;;20.55;6.38;;;;;;;7.92;64.16;101680.25;5014711;28;20037;-77
2023/04/20 08:00:04;;;;;;;16.50;5.63;;;;;;;8.02;64.91;101691.34;5018022;28;20045;-77
2023/04/20 08:02:31;;;;;;;17.10;5.38;;;;;;;8.07;65.20;101681.31;5015630;28;20072;-77
2023/04/20 08:04:56;;;;;;;14.55;5.22;;;;;;;8.18;65.15;101676.25;5014093;28;20500;-77
2023/04/20 08:07:22;;;;;;;19.58;5.78;;;;;;;8.27;63.85;101674.94;5003666;28;20029;-77
2023/04/20 08:09:48;;;;;;;18.50;5.50;;;;;;;8.33;63.70;101674.66;5007210;28;20025;-77
2023/04/20 08:12:13;;;;;;;16.80;5.20;;;;;;;8.36;63.40;101674.47;5021743;28;20124;-76
2023/04/20 08:14:40;;;;;;;18.55;5.35;;;;;;;8.37;63.52;101668.16;5019843;28;20037;-76
2023/04/20 08:17:07;;;;;;;21.15;5.55;;;;;;;8.38;63.09;101666.38;5018591;28;20065;-77
2023/04/20 08:19:32;;;;;;;13.85;4.72;;;;;;;8.43;64.07;101658.09;5009464;28;20084;-77
2023/04/20 08:21:58;;;;;;;17.77;5.38;;;;;;;8.46;64.16;101663.31;5021404;28;20472;-77
2023/04/20 08:24:23;;;;;;;15.38;5.25;;;;;;;8.44;63.79;101660.72;5008571;28;20030;-76
2023/04/20 08:26:48;;;;;;;18.10;5.50;;;;;;;8.49;65.00;101661.38;5014059;28;20026;-77
2023/04/20 08:29:14;;;;;;;17.35;5.18;;;;;;;8.57;64.37;101660.97;5011046;28;20111;-77
2023/04/20 08:31:39;;;;;;;16.20;5.53;;;;;;;8.65;63.98;101661.41;5014569;28;20474;-77
2023/04/20 08:34:05;;;;;;;16.00;5.63;;;;;;;8.72;64.97;101657.47;5004688;28;20029;-77
2023/04/20 08:36:31;;;;;;;15.00;5.35;;;;;;;8.79;64.14;101643.75;4998601;28;20026;-77
2023/04/20 08:39:08;;;;;;;16.45;5.25;;;;;;;8.82;63.36;101644.44;5023421;28;20028;-77
2023/04/20 08:41:34;;;;;;;18.50;5.25;;;;;;;8.93;64.68;101641.19;5004534;28;20044;-77
2023/04/20 08:43:59;;;;;;;17.98;5.13;;;;;;;9.02;63.70;101643.41;4999076;28;20029;-77
2023/04/20 08:46:25;;;;;;;15.55;5.22;;;;;;;9.14;63.65;101633.81;4996693;28;20032;-77
2023/04/20 08:48:54;;;;;;;14.27;5.13;;;;;;;9.17;63.57;101636.31;5003909;28;20032;-77
2023/04/20 08:51:20;;;;;;;13.33;4.33;;;;;;;9.12;63.70;101633.00;5003121;28;20449;-77
2023/04/20 08:53:45;;;;;;;16.90;5.25;;;;;;;9.04;63.27;101640.63;5004601;28;20037;-77
2023/04/20 08:56:10;;;;;;;15.02;4.82;;;;;;;8.98;63.76;101638.28;5000270;28;20049;-77
2023/04/20 08:58:40;;;;;;;16.17;5.20;;;;;;;8.97;63.23;101634.72;5002382;28;20033;-77
2023/04/20 09:01:06;;;;;;;14.95;5.30;;;;;;;9.04;64.82;101627.22;5003793;28;20053;-77
2023/04/20 09:03:33;;;;;;;15.35;5.32;;;;;;;9.08;64.18;101618.91;4997532;28;20033;-77
2023/04/20 09:05:58;;;;;;;16.98;5.32;;;;;;;9.16;63.29;101631.03;5014093;28;20426;-77
2023/04/20 09:08:36;;;;;;;14.68;5.10;;;;;;;9.21;63.47;101620.91;5001232;28;20124;-77
2023/04/20 09:11:01;;;;;;;13.38;5.00;;;;;;;9.22;62.61;101619.97;5018997;28;20034;-77
2023/04/20 09:13:27;;;;;;;16.45;5.63;;;;;;;9.20;63.46;101611.16;5000801;28;20175;-77
2023/04/20 09:15:52;;;;;;;13.57;4.65;;;;;;;9.21;63.69;101619.13;4993331;28;20022;-77
2023/04/20 09:18:17;;;;;;;16.48;5.45;;;;;;;9.27;62.99;101623.28;5027362;28;20174;-76
2023/04/20 09:20:43;;;;;;;13.88;5.13;;;;;;;9.31;62.58;101616.75;4999571;28;20026;-77
2023/04/20 09:23:18;;;;;;;12.27;4.78;;;;;;;9.35;60.93;101615.66;5019987;28;20030;-77
2023/04/20 09:25:48;;;;;;;14.13;4.75;;;;;;;9.39;62.57;101622.59;5017323;28;20230;-77
2023/04/20 09:28:15;;;;;;;12.63;4.28;;;;;;;9.49;62.65;101622.06;5019745;28;20174;-78
2023/04/20 09:30:48;;;;;;;14.05;4.68;;;;;;;9.47;61.15;101626.66;5016625;28;20088;-77
2023/04/20 09:33:13;;;;;;;13.55;4.65;;;;;;;9.48;61.41;101620.34;5022509;28;20103;-77
2023/04/20 09:35:41;;;;;;;14.45;4.95;;;;;;;9.50;61.10;101616.59;4997515;28;20465;-77
2023/04/20 09:38:14;;;;;;;13.63;4.43;;;;;;;9.58;61.82;101627.78;5019171;28;20030;-77
2023/04/20 09:40:39;;;;;;;14.20;4.70;;;;;;;9.58;61.82;101618.88;4994267;28;20029;-77
2023/04/20 09:43:18;;;;;;;13.93;5.00;;;;;;;9.52;61.17;101616.53;5010453;28;20026;-77
2023/04/20 09:45:44;;;;;;;12.65;4.45;;;;;;;9.47;61.26;101623.97;5022755;28;20043;-77
2023/04/20 09:48:10;;;;;;;14.10;4.50;;;;;;;9.43;61.82;101617.94;5014214;28;20108;-77
2023/04/20 09:50:36;;;;;;;12.10;4.57;;;;;;;9.40;61.34;101618.06;4995632;28;20056;-77
2023/04/20 09:53:05;;;;;;;14.13;4.57;;;;;;;9.39;60.96;101611.84;5001375;28;20037;-77
2023/04/20 09:55:31;;;;;;;12.45;4.80;;;;;;;9.42;62.35;101606.31;5000967;28;20049;-76
2023/04/20 09:58:00;;;;;;;16.60;5.03;;;;;;;9.42;61.06;101606.31;5005331;28;20053;-77
2023/04/20 10:00:25;;;;;;;13.57;4.60;;;;;;;9.41;61.63;101604.59;5003981;28;20384;-77
2023/04/20 10:02:51;;;;;;;18.27;4.93;;;;;;;9.38;60.91;101599.38;5002412;28;20026;-77
2023/04/20 10:05:16;;;;;;;15.32;4.78;;;;;;;9.39;60.35;101595.75;5015351;28;20021;-77
2023/04/20 10:07:43;;;;;;;16.48;5.15;;;;;;;9.47;62.48;101581.91;5013526;28;20436;-77
2023/04/20 10:10:09;;;;;;;15.52;5.15;;;;;;;9.60;62.46;101582.94;5019163;28;20124;-77
2023/04/20 10:12:55;;;;;;;13.40;4.50;;;;;;;9.72;61.94;101585.84;4999033;28;20068;-77
2023/04/20 10:15:22;;;;;;;19.60;5.00;;;;;;;9.77;61.23;101587.31;5003613;28;20030;-78
2023/04/20 10:17:48;;;;;;;15.18;4.80;;;;;;;9.79;60.04;101581.88;5004705;28;20029;-78
2023/04/20 10:20:24;;;;;;;13.80;4.88;;;;;;;9.82;60.61;101579.00;4998419;28;20527;-77
2023/04/20 10:22:51;;;;;;;16.38;5.28;;;;;;;9.88;61.27;101580.47;5004043;28;20041;-78
2023/04/20 10:25:23;;;;;;;15.23;5.30;;;;;;;9.89;61.16;101587.56;4998071;28;20038;-77
2023/04/20 10:28:10;;;;;;;14.60;4.68;;;;;;;9.97;61.13;101587.97;5019637;28;20041;-78
2023/04/20 10:30:48;;;;;;;14.60;4.78;;;;;;;9.94;59.59;101585.47;4992583;28;20041;-78
2023/04/20 10:33:13;;;;;;;15.63;5.20;;;;;;;9.95;58.81;101581.84;5019847;28;20026;-77
2023/04/20 10:35:45;;;;;;;16.55;5.13;;;;;;;9.95;61.06;101589.88;5001845;28;20091;-78
2023/04/20 10:38:10;;;;;;;14.23;4.90;;;;;;;9.88;59.76;101583.16;5001222;28;20030;-78
2023/04/20 10:40:36;;;;;;;13.63;4.45;;;;;;;9.86;60.43;101574.34;5009018;28;20083;-77
2023/04/20 10:43:02;;;;;;;14.85;5.03;;;;;;;9.87;60.29;101571.56;5021636;28;20069;-78
2023/04/20 10:45:40;;;;;;;14.48;4.93;;;;;;;9.93;59.94;101573.00;5013402;28;20038;-78
2023/04/20 10:48:09;;;;;;;16.33;5.22;;;;;;;10.03;60.85;101568.84;4996303;28;20083;-77
2023/04/20 10:50:35;;;;;;;17.55;6.05;;;;;;;10.10;62.11;101569.31;5014061;28;20547;-78
2023/04/20 10:53:02;;;;;;;17.33;5.78;;;;;;;10.20;63.19;101562.44;4991955;28;20038;-77
2023/04/20 10:55:27;;;;;;;18.52;6.18;;;;;;;10.25;63.01;101556.78;5010152;28;20046;-77
2023/04/20 10:57:53;;;;;;;13.60;5.47;;;;;;;10.34;61.57;101561.63;4990975;28;20183;-77
2023/04/20 11:00:24;;;;;;;14.10;5.38;;;;;;;10.46;60.62;101562.72;5000664;28;20025;-77
2023/04/20 11:02:52;;;;;;;15.25;5.20;;;;;;;10.37;57.92;101564.13;5010321;28;20026;-77
2023/04/20 11:05:18;;;;;;;14.30;4.90;;;;;;;10.32;58.58;101559.00;5010520;28;20036;-77
2023/04/20 11:07:53;;;;;;;17.42;5.45;;;;;;;10.34;60.03;101555.38;5003557;28;20108;-77
2023/04/20 11:10:20;;;;;;;16.98;5.55;;;;;;;10.29;59.24;101558.31;4995263;28;20030;-77
2023/04/20 11:12:46;;;;;;;15.38;5.82;;;;;;;10.26;59.32;101547.75;5000457;28;20038;-78
2023/04/20 11:15:12;;;;;;;16.52;5.50;;;;;;;10.23;61.07;101547.94;5000961;28;20414;-78
2023/04/20 11:17:38;;;;;;;13.07;5.15;;;;;;;10.09;59.86;101556.88;5006549;28;20473;-77
2023/04/20 11:20:08;;;;;;;17.65;5.80;;;;;;;10.03;60.04;101562.56;4992903;28;20022;-78